sensor_id;sensor_type;location;lat;lon;timestamp;P1;P2;P0
73517;PMS5003;61766;60.318;25.044;2024-01-30T00:00:49;10;9;
73517;PMS5003;61766;60.318;25.044;2024-01-30T00:03:15;12;10;
73517;PMS5003;61766;60.318;25.044;2024-01-30T00:05:40;9;9;
73517;PMS5003;61766;60.318;25.044;2024-01-30T00:08:06;8;8;
73517;PMS5003;61766;60.318;25.044;2024-01-30T00:10:31;10;9;
73517;PMS5003;61766;60.318;25.044;2024-01-30T00:12:57;7;7;
73517;PMS5003;61766;60.318;25.044;2024-01-30T00:15:22;10;10;
73517;PMS5003;61766;60.318;25.044;2024-01-30T00:17:48;8;7;
73517;PMS5003;61766;60.318;25.044;2024-01-30T00:20:14;9;9;
73517;PMS5003;61766;60.318;25.044;2024-01-30T00:22:39;9;9;
73517;PMS5003;61766;60.318;25.044;2024-01-30T00:25:04;9;9;
73517;PMS5003;61766;60.318;25.044;2024-01-30T00:27:29;8;8;
73517;PMS5003;61766;60.318;25.044;2024-01-30T00:29:55;13;11;
73517;PMS5003;61766;60.318;25.044;2024-01-30T00:32:20;8;7;
73517;PMS5003;61766;60.318;25.044;2024-01-30T00:34:45;8;8;
73517;PMS5003;61766;60.318;25.044;2024-01-30T00:37:10;8;7;
73517;PMS5003;61766;60.318;25.044;2024-01-30T00:39:36;8;8;
73517;PMS5003;61766;60.318;25.044;2024-01-30T00:42:01;8;8;
73517;PMS5003;61766;60.318;25.044;2024-01-30T00:44:26;6;6;
73517;PMS5003;61766;60.318;25.044;2024-01-30T00:46:51;10;7;
73517;PMS5003;61766;60.318;25.044;2024-01-30T00:49:16;8;8;
73517;PMS5003;61766;60.318;25.044;2024-01-30T00:51:42;10;9;
73517;PMS5003;61766;60.318;25.044;2024-01-30T00:54:07;10;8;
73517;PMS5003;61766;60.318;25.044;2024-01-30T00:56:32;11;11;
73517;PMS5003;61766;60.318;25.044;2024-01-30T00:58:58;11;10;
73517;PMS5003;61766;60.318;25.044;2024-01-30T01:01:24;8;8;
73517;PMS5003;61766;60.318;25.044;2024-01-30T01:03:49;13;12;
73517;PMS5003;61766;60.318;25.044;2024-01-30T01:06:15;8;7;
73517;PMS5003;61766;60.318;25.044;2024-01-30T01:08:40;9;9;
73517;PMS5003;61766;60.318;25.044;2024-01-30T01:11:05;9;8;
73517;PMS5003;61766;60.318;25.044;2024-01-30T01:13:30;11;8;
73517;PMS5003;61766;60.318;25.044;2024-01-30T01:15:55;11;9;
73517;PMS5003;61766;60.318;25.044;2024-01-30T01:18:21;11;11;
73517;PMS5003;61766;60.318;25.044;2024-01-30T01:20:46;10;8;
73517;PMS5003;61766;60.318;25.044;2024-01-30T01:23:11;10;10;
73517;PMS5003;61766;60.318;25.044;2024-01-30T01:25:36;11;10;
73517;PMS5003;61766;60.318;25.044;2024-01-30T01:28:01;9;7;
73517;PMS5003;61766;60.318;25.044;2024-01-30T01:30:27;13;11;
73517;PMS5003;61766;60.318;25.044;2024-01-30T01:32:53;12;11;
73517;PMS5003;61766;60.318;25.044;2024-01-30T01:35:19;10;7;
73517;PMS5003;61766;60.318;25.044;2024-01-30T01:37:44;12;10;
73517;PMS5003;61766;60.318;25.044;2024-01-30T01:40:10;12;10;
73517;PMS5003;61766;60.318;25.044;2024-01-30T01:42:35;12;9;
73517;PMS5003;61766;60.318;25.044;2024-01-30T01:45:00;12;12;
73517;PMS5003;61766;60.318;25.044;2024-01-30T01:47:26;9;9;
73517;PMS5003;61766;60.318;25.044;2024-01-30T01:49:51;8;8;
73517;PMS5003;61766;60.318;25.044;2024-01-30T01:52:16;13;12;
73517;PMS5003;61766;60.318;25.044;2024-01-30T01:54:42;11;11;
73517;PMS5003;61766;60.318;25.044;2024-01-30T01:57:07;11;10;
73517;PMS5003;61766;60.318;25.044;2024-01-30T01:59:33;15;13;
73517;PMS5003;61766;60.318;25.044;2024-01-30T02:01:59;15;13;
73517;PMS5003;61766;60.318;25.044;2024-01-30T02:04:24;21;21;
73517;PMS5003;61766;60.318;25.044;2024-01-30T02:06:50;19;15;
73517;PMS5003;61766;60.318;25.044;2024-01-30T02:09:15;18;14;
73517;PMS5003;61766;60.318;25.044;2024-01-30T02:11:40;37;35;
73517;PMS5003;61766;60.318;25.044;2024-01-30T02:14:05;35;31;
73517;PMS5003;61766;60.318;25.044;2024-01-30T02:16:31;25;22;
73517;PMS5003;61766;60.318;25.044;2024-01-30T02:18:56;49;40;
73517;PMS5003;61766;60.318;25.044;2024-01-30T02:21:22;58;48;
73517;PMS5003;61766;60.318;25.044;2024-01-30T02:23:47;50;43;
73517;PMS5003;61766;60.318;25.044;2024-01-30T02:26:13;47;46;
73517;PMS5003;61766;60.318;25.044;2024-01-30T02:28:38;42;36;
73517;PMS5003;61766;60.318;25.044;2024-01-30T02:31:04;32;29;
73517;PMS5003;61766;60.318;25.044;2024-01-30T02:33:29;51;42;
73517;PMS5003;61766;60.318;25.044;2024-01-30T02:35:54;55;39;
73517;PMS5003;61766;60.318;25.044;2024-01-30T02:38:20;42;38;
73517;PMS5003;61766;60.318;25.044;2024-01-30T02:40:46;39;32;
73517;PMS5003;61766;60.318;25.044;2024-01-30T02:43:11;43;39;
73517;PMS5003;61766;60.318;25.044;2024-01-30T02:45:37;32;29;
73517;PMS5003;61766;60.318;25.044;2024-01-30T02:48:02;45;36;
73517;PMS5003;61766;60.318;25.044;2024-01-30T02:50:28;33;29;
73517;PMS5003;61766;60.318;25.044;2024-01-30T02:52:53;41;35;
73517;PMS5003;61766;60.318;25.044;2024-01-30T02:55:19;46;37;
73517;PMS5003;61766;60.318;25.044;2024-01-30T02:57:44;39;38;
73517;PMS5003;61766;60.318;25.044;2024-01-30T03:00:10;41;38;
73517;PMS5003;61766;60.318;25.044;2024-01-30T03:02:36;66;57;
73517;PMS5003;61766;60.318;25.044;2024-01-30T03:05:01;39;37;
73517;PMS5003;61766;60.318;25.044;2024-01-30T03:07:27;80;72;
73517;PMS5003;61766;60.318;25.044;2024-01-30T03:09:52;71;59;
73517;PMS5003;61766;60.318;25.044;2024-01-30T03:12:18;92;73;
73517;PMS5003;61766;60.318;25.044;2024-01-30T03:14:44;104;89;
73517;PMS5003;61766;60.318;25.044;2024-01-30T03:17:09;110;85;
73517;PMS5003;61766;60.318;25.044;2024-01-30T03:19:34;103;82;
73517;PMS5003;61766;60.318;25.044;2024-01-30T03:21:59;79;71;
73517;PMS5003;61766;60.318;25.044;2024-01-30T03:24:24;79;69;
73517;PMS5003;61766;60.318;25.044;2024-01-30T03:26:49;83;65;
73517;PMS5003;61766;60.318;25.044;2024-01-30T03:29:15;61;51;
73517;PMS5003;61766;60.318;25.044;2024-01-30T03:31:40;59;45;
73517;PMS5003;61766;60.318;25.044;2024-01-30T03:34:06;53;46;
73517;PMS5003;61766;60.318;25.044;2024-01-30T03:36:32;62;50;
73517;PMS5003;61766;60.318;25.044;2024-01-30T03:38:57;42;38;
73517;PMS5003;61766;60.318;25.044;2024-01-30T03:41:22;36;34;
73517;PMS5003;61766;60.318;25.044;2024-01-30T03:43:47;40;35;
73517;PMS5003;61766;60.318;25.044;2024-01-30T03:46:12;37;36;
73517;PMS5003;61766;60.318;25.044;2024-01-30T03:48:38;37;35;
73517;PMS5003;61766;60.318;25.044;2024-01-30T03:51:03;35;29;
73517;PMS5003;61766;60.318;25.044;2024-01-30T03:53:29;39;36;
73517;PMS5003;61766;60.318;25.044;2024-01-30T03:55:54;37;34;
73517;PMS5003;61766;60.318;25.044;2024-01-30T03:58:20;32;25;
73517;PMS5003;61766;60.318;25.044;2024-01-30T04:00:46;28;25;
73517;PMS5003;61766;60.318;25.044;2024-01-30T04:03:11;29;27;
73517;PMS5003;61766;60.318;25.044;2024-01-30T04:05:37;32;29;
73517;PMS5003;61766;60.318;25.044;2024-01-30T04:08:02;34;30;
73517;PMS5003;61766;60.318;25.044;2024-01-30T04:10:28;26;23;
73517;PMS5003;61766;60.318;25.044;2024-01-30T04:12:53;24;20;
73517;PMS5003;61766;60.318;25.044;2024-01-30T04:15:19;25;25;
73517;PMS5003;61766;60.318;25.044;2024-01-30T04:17:45;25;22;
73517;PMS5003;61766;60.318;25.044;2024-01-30T04:20:13;21;17;
73517;PMS5003;61766;60.318;25.044;2024-01-30T04:22:36;23;21;
73517;PMS5003;61766;60.318;25.044;2024-01-30T04:25:02;24;23;
73517;PMS5003;61766;60.318;25.044;2024-01-30T04:27:27;25;21;
73517;PMS5003;61766;60.318;25.044;2024-01-30T04:29:53;24;18;
73517;PMS5003;61766;60.318;25.044;2024-01-30T04:32:18;22;21;
73517;PMS5003;61766;60.318;25.044;2024-01-30T04:34:44;19;18;
73517;PMS5003;61766;60.318;25.044;2024-01-30T04:37:10;18;16;
73517;PMS5003;61766;60.318;25.044;2024-01-30T04:39:35;27;23;
73517;PMS5003;61766;60.318;25.044;2024-01-30T04:42:01;22;19;
73517;PMS5003;61766;60.318;25.044;2024-01-30T04:44:26;16;15;
73517;PMS5003;61766;60.318;25.044;2024-01-30T04:46:52;17;16;
73517;PMS5003;61766;60.318;25.044;2024-01-30T04:49:17;17;15;
73517;PMS5003;61766;60.318;25.044;2024-01-30T04:51:43;17;16;
73517;PMS5003;61766;60.318;25.044;2024-01-30T04:54:08;14;13;
73517;PMS5003;61766;60.318;25.044;2024-01-30T04:56:34;18;15;
73517;PMS5003;61766;60.318;25.044;2024-01-30T04:59:00;15;14;
73517;PMS5003;61766;60.318;25.044;2024-01-30T05:01:25;21;20;
73517;PMS5003;61766;60.318;25.044;2024-01-30T05:03:51;18;15;
73517;PMS5003;61766;60.318;25.044;2024-01-30T05:08:42;18;14;
73517;PMS5003;61766;60.318;25.044;2024-01-30T05:11:08;19;17;
73517;PMS5003;61766;60.318;25.044;2024-01-30T05:13:33;16;14;
73517;PMS5003;61766;60.318;25.044;2024-01-30T05:15:59;16;15;
73517;PMS5003;61766;60.318;25.044;2024-01-30T05:18:24;20;18;
73517;PMS5003;61766;60.318;25.044;2024-01-30T05:20:50;17;16;
73517;PMS5003;61766;60.318;25.044;2024-01-30T05:23:16;18;17;
73517;PMS5003;61766;60.318;25.044;2024-01-30T05:25:42;23;21;
73517;PMS5003;61766;60.318;25.044;2024-01-30T05:28:08;18;17;
73517;PMS5003;61766;60.318;25.044;2024-01-30T05:30:33;18;17;
73517;PMS5003;61766;60.318;25.044;2024-01-30T05:32:59;16;15;
73517;PMS5003;61766;60.318;25.044;2024-01-30T05:35:24;18;16;
73517;PMS5003;61766;60.318;25.044;2024-01-30T05:37:50;15;15;
73517;PMS5003;61766;60.318;25.044;2024-01-30T05:40:16;16;16;
73517;PMS5003;61766;60.318;25.044;2024-01-30T05:42:41;19;17;
73517;PMS5003;61766;60.318;25.044;2024-01-30T05:45:07;23;22;
73517;PMS5003;61766;60.318;25.044;2024-01-30T05:47:32;19;17;
73517;PMS5003;61766;60.318;25.044;2024-01-30T05:49:57;14;14;
73517;PMS5003;61766;60.318;25.044;2024-01-30T05:52:23;16;15;
73517;PMS5003;61766;60.318;25.044;2024-01-30T05:54:49;18;17;
73517;PMS5003;61766;60.318;25.044;2024-01-30T05:57:14;20;20;
73517;PMS5003;61766;60.318;25.044;2024-01-30T05:59:40;25;18;
73517;PMS5003;61766;60.318;25.044;2024-01-30T06:02:05;23;18;
73517;PMS5003;61766;60.318;25.044;2024-01-30T06:04:30;19;16;
73517;PMS5003;61766;60.318;25.044;2024-01-30T06:06:55;16;15;
73517;PMS5003;61766;60.318;25.044;2024-01-30T06:09:21;19;17;
73517;PMS5003;61766;60.318;25.044;2024-01-30T06:11:47;17;16;
73517;PMS5003;61766;60.318;25.044;2024-01-30T06:14:12;15;14;
73517;PMS5003;61766;60.318;25.044;2024-01-30T06:16:38;16;15;
73517;PMS5003;61766;60.318;25.044;2024-01-30T06:19:03;16;15;
73517;PMS5003;61766;60.318;25.044;2024-01-30T06:21:29;15;13;
73517;PMS5003;61766;60.318;25.044;2024-01-30T06:23:55;15;15;
73517;PMS5003;61766;60.318;25.044;2024-01-30T06:26:20;18;15;
73517;PMS5003;61766;60.318;25.044;2024-01-30T06:28:46;18;17;
73517;PMS5003;61766;60.318;25.044;2024-01-30T06:31:12;19;16;
73517;PMS5003;61766;60.318;25.044;2024-01-30T06:33:37;17;17;
73517;PMS5003;61766;60.318;25.044;2024-01-30T06:36:03;19;19;
73517;PMS5003;61766;60.318;25.044;2024-01-30T06:38:28;13;13;
73517;PMS5003;61766;60.318;25.044;2024-01-30T06:40:53;17;17;
73517;PMS5003;61766;60.318;25.044;2024-01-30T06:43:19;19;19;
73517;PMS5003;61766;60.318;25.044;2024-01-30T06:45:44;19;16;
73517;PMS5003;61766;60.318;25.044;2024-01-30T06:48:10;16;15;
73517;PMS5003;61766;60.318;25.044;2024-01-30T06:50:35;26;25;
73517;PMS5003;61766;60.318;25.044;2024-01-30T06:53:01;18;16;
73517;PMS5003;61766;60.318;25.044;2024-01-30T06:55:26;17;16;
73517;PMS5003;61766;60.318;25.044;2024-01-30T06:57:51;15;15;
73517;PMS5003;61766;60.318;25.044;2024-01-30T07:00:17;17;16;
73517;PMS5003;61766;60.318;25.044;2024-01-30T07:02:42;16;16;
73517;PMS5003;61766;60.318;25.044;2024-01-30T07:05:09;14;14;
73517;PMS5003;61766;60.318;25.044;2024-01-30T07:07:33;15;15;
73517;PMS5003;61766;60.318;25.044;2024-01-30T07:09:59;14;14;
73517;PMS5003;61766;60.318;25.044;2024-01-30T07:12:25;14;13;
73517;PMS5003;61766;60.318;25.044;2024-01-30T07:14:51;17;14;
73517;PMS5003;61766;60.318;25.044;2024-01-30T07:17:16;17;15;
73517;PMS5003;61766;60.318;25.044;2024-01-30T07:19:41;14;14;
73517;PMS5003;61766;60.318;25.044;2024-01-30T07:22:07;18;17;
73517;PMS5003;61766;60.318;25.044;2024-01-30T07:24:33;14;13;
73517;PMS5003;61766;60.318;25.044;2024-01-30T07:26:58;14;14;
73517;PMS5003;61766;60.318;25.044;2024-01-30T07:29:23;18;14;
73517;PMS5003;61766;60.318;25.044;2024-01-30T07:31:49;12;12;
73517;PMS5003;61766;60.318;25.044;2024-01-30T07:34:14;16;16;
73517;PMS5003;61766;60.318;25.044;2024-01-30T07:36:40;21;20;
73517;PMS5003;61766;60.318;25.044;2024-01-30T07:39:05;17;16;
73517;PMS5003;61766;60.318;25.044;2024-01-30T07:41:30;15;15;
73517;PMS5003;61766;60.318;25.044;2024-01-30T07:43:55;16;14;
73517;PMS5003;61766;60.318;25.044;2024-01-30T07:46:21;21;20;
73517;PMS5003;61766;60.318;25.044;2024-01-30T07:48:47;15;14;
73517;PMS5003;61766;60.318;25.044;2024-01-30T07:51:12;21;17;
73517;PMS5003;61766;60.318;25.044;2024-01-30T07:53:38;21;18;
73517;PMS5003;61766;60.318;25.044;2024-01-30T07:56:05;15;14;
73517;PMS5003;61766;60.318;25.044;2024-01-30T07:58:29;15;15;
73517;PMS5003;61766;60.318;25.044;2024-01-30T08:00:54;17;15;
73517;PMS5003;61766;60.318;25.044;2024-01-30T08:03:20;22;20;
73517;PMS5003;61766;60.318;25.044;2024-01-30T08:05:45;15;15;
73517;PMS5003;61766;60.318;25.044;2024-01-30T08:08:11;14;14;
73517;PMS5003;61766;60.318;25.044;2024-01-30T08:10:36;15;13;
73517;PMS5003;61766;60.318;25.044;2024-01-30T08:13:03;16;15;
73517;PMS5003;61766;60.318;25.044;2024-01-30T08:15:28;14;13;
73517;PMS5003;61766;60.318;25.044;2024-01-30T08:17:54;14;14;
73517;PMS5003;61766;60.318;25.044;2024-01-30T08:20:19;15;15;
73517;PMS5003;61766;60.318;25.044;2024-01-30T08:22:44;13;13;
73517;PMS5003;61766;60.318;25.044;2024-01-30T08:25:10;19;18;
73517;PMS5003;61766;60.318;25.044;2024-01-30T08:27:36;12;12;
73517;PMS5003;61766;60.318;25.044;2024-01-30T08:30:01;18;18;
73517;PMS5003;61766;60.318;25.044;2024-01-30T08:32:26;20;19;
73517;PMS5003;61766;60.318;25.044;2024-01-30T08:34:52;15;14;
73517;PMS5003;61766;60.318;25.044;2024-01-30T08:37:17;19;19;
73517;PMS5003;61766;60.318;25.044;2024-01-30T08:39:43;16;16;
73517;PMS5003;61766;60.318;25.044;2024-01-30T08:42:09;17;17;
73517;PMS5003;61766;60.318;25.044;2024-01-30T08:44:34;15;15;
73517;PMS5003;61766;60.318;25.044;2024-01-30T08:47:00;19;18;
73517;PMS5003;61766;60.318;25.044;2024-01-30T08:49:26;17;16;
73517;PMS5003;61766;60.318;25.044;2024-01-30T08:51:52;16;16;
73517;PMS5003;61766;60.318;25.044;2024-01-30T08:54:17;20;19;
73517;PMS5003;61766;60.318;25.044;2024-01-30T08:56:43;20;19;
73517;PMS5003;61766;60.318;25.044;2024-01-30T08:59:08;16;15;
73517;PMS5003;61766;60.318;25.044;2024-01-30T09:01:34;18;17;
73517;PMS5003;61766;60.318;25.044;2024-01-30T09:03:59;19;18;
73517;PMS5003;61766;60.318;25.044;2024-01-30T09:06:24;20;19;
73517;PMS5003;61766;60.318;25.044;2024-01-30T09:08:50;19;18;
73517;PMS5003;61766;60.318;25.044;2024-01-30T09:11:16;17;16;
73517;PMS5003;61766;60.318;25.044;2024-01-30T09:13:41;21;19;
73517;PMS5003;61766;60.318;25.044;2024-01-30T09:16:07;20;19;
73517;PMS5003;61766;60.318;25.044;2024-01-30T09:18:33;17;17;
73517;PMS5003;61766;60.318;25.044;2024-01-30T09:20:58;17;17;
73517;PMS5003;61766;60.318;25.044;2024-01-30T09:23:24;21;21;
73517;PMS5003;61766;60.318;25.044;2024-01-30T09:25:49;19;19;
73517;PMS5003;61766;60.318;25.044;2024-01-30T09:28:14;20;19;
73517;PMS5003;61766;60.318;25.044;2024-01-30T09:30:39;22;19;
73517;PMS5003;61766;60.318;25.044;2024-01-30T09:33:05;20;20;
73517;PMS5003;61766;60.318;25.044;2024-01-30T09:35:30;17;17;
73517;PMS5003;61766;60.318;25.044;2024-01-30T09:37:56;17;17;
73517;PMS5003;61766;60.318;25.044;2024-01-30T09:40:22;22;20;
73517;PMS5003;61766;60.318;25.044;2024-01-30T09:42:47;17;17;
73517;PMS5003;61766;60.318;25.044;2024-01-30T09:45:13;20;19;
73517;PMS5003;61766;60.318;25.044;2024-01-30T09:47:39;21;20;
73517;PMS5003;61766;60.318;25.044;2024-01-30T09:50:04;21;20;
73517;PMS5003;61766;60.318;25.044;2024-01-30T09:52:29;21;20;
73517;PMS5003;61766;60.318;25.044;2024-01-30T09:54:54;21;21;
73517;PMS5003;61766;60.318;25.044;2024-01-30T09:57:20;27;22;
73517;PMS5003;61766;60.318;25.044;2024-01-30T09:59:46;22;21;
73517;PMS5003;61766;60.318;25.044;2024-01-30T10:02:12;26;25;
73517;PMS5003;61766;60.318;25.044;2024-01-30T10:04:37;18;15;
73517;PMS5003;61766;60.318;25.044;2024-01-30T10:07:03;22;21;
73517;PMS5003;61766;60.318;25.044;2024-01-30T10:09:28;23;22;
73517;PMS5003;61766;60.318;25.044;2024-01-30T10:11:53;24;24;
73517;PMS5003;61766;60.318;25.044;2024-01-30T10:14:19;25;25;
73517;PMS5003;61766;60.318;25.044;2024-01-30T10:16:45;20;20;
73517;PMS5003;61766;60.318;25.044;2024-01-30T10:19:09;26;26;
73517;PMS5003;61766;60.318;25.044;2024-01-30T10:21:35;25;24;
73517;PMS5003;61766;60.318;25.044;2024-01-30T10:24:00;23;22;
73517;PMS5003;61766;60.318;25.044;2024-01-30T10:26:25;28;26;
73517;PMS5003;61766;60.318;25.044;2024-01-30T10:28:50;31;28;
73517;PMS5003;61766;60.318;25.044;2024-01-30T10:31:17;26;25;
73517;PMS5003;61766;60.318;25.044;2024-01-30T10:33:41;23;22;
73517;PMS5003;61766;60.318;25.044;2024-01-30T10:36:07;21;19;
73517;PMS5003;61766;60.318;25.044;2024-01-30T10:38:32;48;47;
73517;PMS5003;61766;60.318;25.044;2024-01-30T10:40:58;47;46;
73517;PMS5003;61766;60.318;25.044;2024-01-30T10:43:24;24;23;
73517;PMS5003;61766;60.318;25.044;2024-01-30T10:45:49;25;24;
73517;PMS5003;61766;60.318;25.044;2024-01-30T10:48:14;26;24;
73517;PMS5003;61766;60.318;25.044;2024-01-30T10:50:40;23;23;
73517;PMS5003;61766;60.318;25.044;2024-01-30T10:53:05;26;25;
73517;PMS5003;61766;60.318;25.044;2024-01-30T10:55:30;23;22;
73517;PMS5003;61766;60.318;25.044;2024-01-30T10:57:56;27;26;
73517;PMS5003;61766;60.318;25.044;2024-01-30T11:00:22;30;28;
73517;PMS5003;61766;60.318;25.044;2024-01-30T11:02:48;28;27;
73517;PMS5003;61766;60.318;25.044;2024-01-30T11:05:13;27;26;
73517;PMS5003;61766;60.318;25.044;2024-01-30T11:07:39;27;26;
73517;PMS5003;61766;60.318;25.044;2024-01-30T11:10:04;28;28;
73517;PMS5003;61766;60.318;25.044;2024-01-30T11:12:30;29;27;
73517;PMS5003;61766;60.318;25.044;2024-01-30T11:15:04;29;28;
73517;PMS5003;61766;60.318;25.044;2024-01-30T11:17:20;27;26;
73517;PMS5003;61766;60.318;25.044;2024-01-30T11:19:46;32;31;
73517;PMS5003;61766;60.318;25.044;2024-01-30T11:22:11;32;29;
73517;PMS5003;61766;60.318;25.044;2024-01-30T11:24:39;37;35;
73517;PMS5003;61766;60.318;25.044;2024-01-30T11:27:02;31;29;
73517;PMS5003;61766;60.318;25.044;2024-01-30T11:29:27;37;37;
73517;PMS5003;61766;60.318;25.044;2024-01-30T11:31:52;36;34;
73517;PMS5003;61766;60.318;25.044;2024-01-30T11:34:17;34;33;
73517;PMS5003;61766;60.318;25.044;2024-01-30T11:36:42;37;34;
73517;PMS5003;61766;60.318;25.044;2024-01-30T11:39:08;37;34;
73517;PMS5003;61766;60.318;25.044;2024-01-30T11:41:34;39;35;
73517;PMS5003;61766;60.318;25.044;2024-01-30T11:43:59;36;34;
73517;PMS5003;61766;60.318;25.044;2024-01-30T11:46:25;40;39;
73517;PMS5003;61766;60.318;25.044;2024-01-30T11:48:50;41;40;
73517;PMS5003;61766;60.318;25.044;2024-01-30T11:51:16;29;28;
73517;PMS5003;61766;60.318;25.044;2024-01-30T11:53:41;36;34;
73517;PMS5003;61766;60.318;25.044;2024-01-30T11:56:07;34;34;
73517;PMS5003;61766;60.318;25.044;2024-01-30T11:58:33;37;37;
73517;PMS5003;61766;60.318;25.044;2024-01-30T12:00:58;37;35;
73517;PMS5003;61766;60.318;25.044;2024-01-30T12:03:24;43;41;
73517;PMS5003;61766;60.318;25.044;2024-01-30T12:05:54;35;33;
73517;PMS5003;61766;60.318;25.044;2024-01-30T12:08:15;36;34;
73517;PMS5003;61766;60.318;25.044;2024-01-30T12:10:40;37;35;
73517;PMS5003;61766;60.318;25.044;2024-01-30T12:13:06;35;33;
73517;PMS5003;61766;60.318;25.044;2024-01-30T12:15:31;34;31;
73517;PMS5003;61766;60.318;25.044;2024-01-30T12:20:22;32;31;
73517;PMS5003;61766;60.318;25.044;2024-01-30T12:22:48;36;35;
73517;PMS5003;61766;60.318;25.044;2024-01-30T12:25:14;37;35;
73517;PMS5003;61766;60.318;25.044;2024-01-30T12:27:39;32;31;
73517;PMS5003;61766;60.318;25.044;2024-01-30T12:30:05;32;32;
73517;PMS5003;61766;60.318;25.044;2024-01-30T12:32:29;36;34;
73517;PMS5003;61766;60.318;25.044;2024-01-30T12:34:55;39;35;
73517;PMS5003;61766;60.318;25.044;2024-01-30T12:37:20;35;34;
73517;PMS5003;61766;60.318;25.044;2024-01-30T12:39:46;37;35;
73517;PMS5003;61766;60.318;25.044;2024-01-30T12:42:11;37;32;
73517;PMS5003;61766;60.318;25.044;2024-01-30T12:44:36;44;38;
73517;PMS5003;61766;60.318;25.044;2024-01-30T12:47:02;38;36;
73517;PMS5003;61766;60.318;25.044;2024-01-30T12:49:27;35;34;
73517;PMS5003;61766;60.318;25.044;2024-01-30T12:51:52;34;33;
73517;PMS5003;61766;60.318;25.044;2024-01-30T12:54:18;31;30;
73517;PMS5003;61766;60.318;25.044;2024-01-30T12:56:44;32;32;
73517;PMS5003;61766;60.318;25.044;2024-01-30T12:59:09;29;29;
73517;PMS5003;61766;60.318;25.044;2024-01-30T13:01:35;32;30;
73517;PMS5003;61766;60.318;25.044;2024-01-30T13:04:00;34;33;
73517;PMS5003;61766;60.318;25.044;2024-01-30T13:06:26;41;37;
73517;PMS5003;61766;60.318;25.044;2024-01-30T13:08:52;49;43;
73517;PMS5003;61766;60.318;25.044;2024-01-30T13:11:17;35;34;
73517;PMS5003;61766;60.318;25.044;2024-01-30T13:13:42;36;35;
73517;PMS5003;61766;60.318;25.044;2024-01-30T13:16:08;36;34;
73517;PMS5003;61766;60.318;25.044;2024-01-30T13:18:33;39;38;
73517;PMS5003;61766;60.318;25.044;2024-01-30T13:20:59;31;31;
73517;PMS5003;61766;60.318;25.044;2024-01-30T13:23:25;39;38;
73517;PMS5003;61766;60.318;25.044;2024-01-30T13:25:50;35;32;
73517;PMS5003;61766;60.318;25.044;2024-01-30T13:28:15;36;34;
73517;PMS5003;61766;60.318;25.044;2024-01-30T13:30:41;31;30;
73517;PMS5003;61766;60.318;25.044;2024-01-30T13:33:06;35;33;
73517;PMS5003;61766;60.318;25.044;2024-01-30T13:35:31;39;38;
73517;PMS5003;61766;60.318;25.044;2024-01-30T13:37:56;37;35;
73517;PMS5003;61766;60.318;25.044;2024-01-30T13:40:22;37;37;
73517;PMS5003;61766;60.318;25.044;2024-01-30T13:42:47;36;34;
73517;PMS5003;61766;60.318;25.044;2024-01-30T13:45:13;42;41;
73517;PMS5003;61766;60.318;25.044;2024-01-30T13:47:39;35;32;
73517;PMS5003;61766;60.318;25.044;2024-01-30T13:50:05;43;39;
73517;PMS5003;61766;60.318;25.044;2024-01-30T13:52:29;39;36;
73517;PMS5003;61766;60.318;25.044;2024-01-30T13:54:54;32;31;
73517;PMS5003;61766;60.318;25.044;2024-01-30T13:57:20;34;32;
73517;PMS5003;61766;60.318;25.044;2024-01-30T13:59:46;43;37;
73517;PMS5003;61766;60.318;25.044;2024-01-30T14:02:11;34;34;
73517;PMS5003;61766;60.318;25.044;2024-01-30T14:04:37;33;32;
73517;PMS5003;61766;60.318;25.044;2024-01-30T14:07:03;35;33;
73517;PMS5003;61766;60.318;25.044;2024-01-30T14:09:28;35;34;
73517;PMS5003;61766;60.318;25.044;2024-01-30T14:11:53;35;33;
73517;PMS5003;61766;60.318;25.044;2024-01-30T14:14:19;31;29;
73517;PMS5003;61766;60.318;25.044;2024-01-30T14:16:44;30;30;
73517;PMS5003;61766;60.318;25.044;2024-01-30T14:19:10;31;28;
73517;PMS5003;61766;60.318;25.044;2024-01-30T14:21:35;34;32;
73517;PMS5003;61766;60.318;25.044;2024-01-30T14:24:01;35;34;
73517;PMS5003;61766;60.318;25.044;2024-01-30T14:26:26;36;36;
73517;PMS5003;61766;60.318;25.044;2024-01-30T14:28:51;30;28;
73517;PMS5003;61766;60.318;25.044;2024-01-30T14:31:17;29;29;
73517;PMS5003;61766;60.318;25.044;2024-01-30T14:33:42;37;33;
73517;PMS5003;61766;60.318;25.044;2024-01-30T14:36:08;37;33;
73517;PMS5003;61766;60.318;25.044;2024-01-30T14:38:33;35;31;
73517;PMS5003;61766;60.318;25.044;2024-01-30T14:40:59;46;41;
73517;PMS5003;61766;60.318;25.044;2024-01-30T14:43:24;36;33;
73517;PMS5003;61766;60.318;25.044;2024-01-30T14:45:50;31;31;
73517;PMS5003;61766;60.318;25.044;2024-01-30T14:48:16;35;31;
73517;PMS5003;61766;60.318;25.044;2024-01-30T14:50:41;31;30;
73517;PMS5003;61766;60.318;25.044;2024-01-30T14:53:06;32;32;
73517;PMS5003;61766;60.318;25.044;2024-01-30T14:55:32;35;32;
73517;PMS5003;61766;60.318;25.044;2024-01-30T14:57:57;32;30;
73517;PMS5003;61766;60.318;25.044;2024-01-30T15:00:23;32;30;
73517;PMS5003;61766;60.318;25.044;2024-01-30T15:02:48;36;35;
73517;PMS5003;61766;60.318;25.044;2024-01-30T15:05:14;36;33;
73517;PMS5003;61766;60.318;25.044;2024-01-30T15:07:40;29;28;
73517;PMS5003;61766;60.318;25.044;2024-01-30T15:10:05;36;36;
73517;PMS5003;61766;60.318;25.044;2024-01-30T15:12:31;35;33;
73517;PMS5003;61766;60.318;25.044;2024-01-30T15:14:56;31;31;
73517;PMS5003;61766;60.318;25.044;2024-01-30T15:17:22;23;23;
73517;PMS5003;61766;60.318;25.044;2024-01-30T15:19:48;19;19;
73517;PMS5003;61766;60.318;25.044;2024-01-30T15:22:13;24;24;
73517;PMS5003;61766;60.318;25.044;2024-01-30T15:24:38;24;23;
73517;PMS5003;61766;60.318;25.044;2024-01-30T15:27:04;23;22;
73517;PMS5003;61766;60.318;25.044;2024-01-30T15:29:29;27;26;
73517;PMS5003;61766;60.318;25.044;2024-01-30T15:31:54;24;24;
73517;PMS5003;61766;60.318;25.044;2024-01-30T15:34:20;28;27;
73517;PMS5003;61766;60.318;25.044;2024-01-30T15:36:45;22;21;
73517;PMS5003;61766;60.318;25.044;2024-01-30T15:39:11;27;26;
73517;PMS5003;61766;60.318;25.044;2024-01-30T15:41:37;25;24;
73517;PMS5003;61766;60.318;25.044;2024-01-30T15:44:02;23;21;
73517;PMS5003;61766;60.318;25.044;2024-01-30T15:46:28;25;23;
73517;PMS5003;61766;60.318;25.044;2024-01-30T15:48:53;22;22;
73517;PMS5003;61766;60.318;25.044;2024-01-30T15:51:19;28;25;
73517;PMS5003;61766;60.318;25.044;2024-01-30T15:53:44;25;25;
73517;PMS5003;61766;60.318;25.044;2024-01-30T15:56:10;29;27;